ailir.com alexa rank chart, ailir.com alexa rank daily changes

ailir.com alexa rank chart, ailir.com alexa rank daily changes

ailir.com
Actual rank:
76 841

RANK HISTORY

Date Rank Diff
2017/04/30 76 841 -633
2017/04/29 77 474 +509
2017/04/28 76 965 -918
2017/04/27 77 883 +796
2017/04/26 77 087 -68
2017/04/25 77 155 -3 682
2017/04/24 80 837 +1 261
2017/04/23 79 576 +3 349
2017/04/22 76 227 -361
2017/04/21 76 588 +1 467
2017/04/20 75 121 +1 955
2017/04/19 73 166 +64
2017/04/18 73 102 +622
2017/04/17 72 480 +1 850
2017/04/16 70 630 +270
2017/04/15 70 360 +782
2017/04/14 69 578 -1 317
2017/04/13 70 895 +1 530
2017/04/12 69 365 +688
2017/04/11 68 677 -152
2017/04/10 68 829 -353
2017/04/09 69 182 -2 002
2017/04/08 71 184 -909
2017/04/07 72 093 +763
2017/04/06 71 330 -721
2017/04/05 72 051 -416
2017/04/04 72 467 -3 514
2017/04/03 75 981 -151
2017/04/02 76 132 -1 282
2017/04/01 77 414 +1 544
2017/03/31 75 870 -305
2017/03/30 76 175 +1 967
2017/03/29 74 208 -3 036
2017/03/28 77 244 +2 826
2017/03/27 74 418 +2 524
2017/03/26 71 894 -508
2017/03/25 72 402 +1 489
2017/03/24 70 913 -46
2017/03/23 70 959 -2 423
2017/03/22 73 382 -1 044
2017/03/21 74 426 +1 315
2017/03/20 73 111 -1 013
2017/03/19 74 124 -737
2017/03/18 74 861 +2 471
2017/03/17 72 390 -4 449
2017/03/16 76 839 -2 607
2017/03/15 79 446 -581
2017/03/14 80 027 +282
2017/03/13 79 745 +1 135
2017/03/12 78 610 +132
2017/03/11 78 478 -1 160
2017/03/10 79 638 -3 303
2017/03/09 82 941 +2 038
2017/03/08 80 903 +1 628
2017/03/07 79 275 -2 076
2017/03/06 81 351 +3 097
2017/03/01 78 254

WIDGET FOR YOUR SITE

DOMAINS WITH THE NEAREST RANK

Domain Rank
bpm-power.com 76 836
miroc.co.jp 76 837
lsuhsc.edu 76 838
unam.edu.na 76 839
statbroadcast.com 76 840
ailir.com 76 841
naturitas.es 76 842
militaryarms.ru 76 843
akeebabackup.com 76 844
predictway.com 76 845
aligntech.com 76 846

DOMAINS WITH THE NEAREST RANK BY TLD .com

Domain Rank
bajajelectricals.com 76 826
ping-t.com 76 827
utimf.com 76 830
bpm-power.com 76 836
statbroadcast.com 76 840
ailir.com 76 841
akeebabackup.com 76 844
predictway.com 76 845
aligntech.com 76 846
timeoutshanghai.com 76 850
propertyroom.com 76 851